createdAt,value
2023-12-30T00:08:33.855Z,9.45
2023-12-30T00:18:39.148Z,9.66
2023-12-30T00:28:41.609Z,9.72
2023-12-30T00:38:45.379Z,9.68
2023-12-30T00:48:56.476Z,9.78
2023-12-30T00:59:01.641Z,9.75
2023-12-30T01:09:04.337Z,9.67
2023-12-30T01:19:08.143Z,9.75
2023-12-30T01:29:10.804Z,9.69
2023-12-30T01:39:15.221Z,9.90
2023-12-30T01:49:17.826Z,9.97
2023-12-30T01:59:22.390Z,9.86
2023-12-30T02:09:24.913Z,9.75
2023-12-30T02:19:28.894Z,9.84
2023-12-30T02:29:32.815Z,9.79
2023-12-30T02:39:35.483Z,9.76
2023-12-30T02:49:42.045Z,9.64
2023-12-30T02:59:44.475Z,9.66
2023-12-30T03:09:48.484Z,9.72
2023-12-30T03:19:50.987Z,9.69
2023-12-30T03:29:54.798Z,9.76
2023-12-30T03:39:57.227Z,9.81
2023-12-30T03:50:01.066Z,9.70
2023-12-30T04:00:04.299Z,9.76
2023-12-30T04:10:09.148Z,9.81
2023-12-30T04:20:12.129Z,9.68
2023-12-30T04:30:16.128Z,9.64
2023-12-30T04:40:18.650Z,9.64
2023-12-30T04:50:24.158Z,9.65
2023-12-30T05:00:26.590Z,9.52
2023-12-30T05:10:30.396Z,9.63
2023-12-30T05:20:33.589Z,9.51
2023-12-30T05:30:37.431Z,9.53
2023-12-30T05:40:39.988Z,9.53
2023-12-30T05:50:43.818Z,9.66
2023-12-30T06:00:46.244Z,9.62
2023-12-30T06:10:52.663Z,9.66
2023-12-30T06:20:55.117Z,9.48
2023-12-30T06:30:59.015Z,9.63
2023-12-30T06:41:01.488Z,9.59
2023-12-30T06:51:06.092Z,9.51
2023-12-30T07:01:08.566Z,9.43
2023-12-30T07:11:13.032Z,9.54
2023-12-30T07:21:17.570Z,9.46
2023-12-30T07:31:21.670Z,9.72
2023-12-30T07:41:24.108Z,9.55
2023-12-30T07:51:27.847Z,9.58
2023-12-30T08:01:30.325Z,9.73
2023-12-30T08:11:42.595Z,9.64
2023-12-30T08:21:52.369Z,9.71
2023-12-30T08:31:56.221Z,9.92
2023-12-30T08:41:58.639Z,10.05
2023-12-30T08:52:02.409Z,10.15
2023-12-30T09:02:05.098Z,10.47
2023-12-30T09:12:09.650Z,10.30
2023-12-30T09:22:13.511Z,10.53
2023-12-30T09:32:17.724Z,10.91
2023-12-30T09:42:20.131Z,10.91
2023-12-30T09:52:24.038Z,11.07
2023-12-30T10:02:26.476Z,11.35
2023-12-30T10:12:30.219Z,11.60
2023-12-30T10:22:32.708Z,12.09
2023-12-30T10:32:36.577Z,12.10
2023-12-30T10:42:39.298Z,12.32
2023-12-30T10:52:46.225Z,12.55
2023-12-30T11:02:49.659Z,12.67
2023-12-30T11:12:54.199Z,13.88
2023-12-30T11:22:58.791Z,13.22
2023-12-30T11:33:02.851Z,12.59
2023-12-30T11:43:08.086Z,12.71
2023-12-30T11:53:12.101Z,12.78
2023-12-30T12:03:14.978Z,13.61
2023-12-30T12:13:22.933Z,13.82
2023-12-30T12:23:26.423Z,13.97
2023-12-30T12:33:30.544Z,14.68
2023-12-30T12:43:33.253Z,16.59
2023-12-30T12:53:37.051Z,16.84
2023-12-30T13:03:39.598Z,15.96
2023-12-30T13:13:50.305Z,16.96
2023-12-30T13:23:52.762Z,16.04
2023-12-30T13:33:56.718Z,15.50
2023-12-30T13:44:00.867Z,14.74
2023-12-30T13:54:04.901Z,14.60
2023-12-30T14:04:08.704Z,14.47
2023-12-30T14:14:13.133Z,13.91
2023-12-30T14:24:19.670Z,13.69
2023-12-30T14:34:23.577Z,13.73
2023-12-30T14:44:26.142Z,13.57
2023-12-30T14:54:29.918Z,13.38
2023-12-30T15:04:32.657Z,13.30
2023-12-30T15:14:36.538Z,13.05
2023-12-30T15:24:39.055Z,12.93
2023-12-30T15:34:42.936Z,12.83
2023-12-30T15:44:45.406Z,12.77
2023-12-30T15:54:49.927Z,12.48
2023-12-30T16:04:52.578Z,12.33
2023-12-30T16:14:56.400Z,12.06
2023-12-30T16:24:58.996Z,11.95
2023-12-30T16:35:02.889Z,11.85
2023-12-30T16:45:05.751Z,11.64
2023-12-30T16:55:12.384Z,11.44
2023-12-30T17:05:15.886Z,11.31
2023-12-30T17:15:19.965Z,11.11
2023-12-30T17:25:22.430Z,10.91
2023-12-30T17:35:27.814Z,10.92
2023-12-30T17:45:30.423Z,10.81
2023-12-30T17:55:34.359Z,10.76
2023-12-30T18:05:36.921Z,10.76
2023-12-30T18:15:41.362Z,10.66
2023-12-30T18:25:43.832Z,10.62
2023-12-30T18:35:47.853Z,10.55
2023-12-30T18:45:50.277Z,10.41
2023-12-30T18:55:54.222Z,10.35
2023-12-30T19:05:57.892Z,10.11
2023-12-30T19:16:01.708Z,10.06
2023-12-30T19:26:04.452Z,10.06
2023-12-30T19:36:08.614Z,10.12
2023-12-30T19:46:11.529Z,10.04
2023-12-30T19:56:15.311Z,9.93
2023-12-30T20:06:17.937Z,9.87
2023-12-30T20:16:21.778Z,9.75
2023-12-30T20:26:25.487Z,9.47
2023-12-30T20:36:29.261Z,9.56
2023-12-30T20:46:31.720Z,9.46
2023-12-30T20:56:35.516Z,9.45
2023-12-30T21:06:37.943Z,9.40
2023-12-30T21:16:44.382Z,9.30
2023-12-30T21:26:48.379Z,9.15
2023-12-30T21:36:52.220Z,9.23
2023-12-30T21:46:54.722Z,9.07
2023-12-30T21:56:58.643Z,8.97
2023-12-30T22:07:01.073Z,9.01
2023-12-30T22:17:06.532Z,8.91
2023-12-30T22:27:10.394Z,8.83
2023-12-30T22:37:14.288Z,8.68
2023-12-30T22:47:16.714Z,8.69
2023-12-30T22:57:20.528Z,8.68
2023-12-30T23:07:22.982Z,8.78
2023-12-30T23:17:26.816Z,8.75
2023-12-30T23:27:29.296Z,8.73
2023-12-30T23:37:33.798Z,8.36
2023-12-30T23:47:36.428Z,8.13
2023-12-30T23:57:40.203Z,8.14
